Time;durP1;ratioP1;P1;durP2;ratioP2;P2;SDS_P1;SDS_P2;PMS_P1;PMS_P2;Temp;Humidity;BMP_temperature;BMP_pressure;BME280_temperature;BME280_humidity;BME280_pressure;Samples;Min_cycle;Max_cycle;Signal;HPM_P1;HPM_P2
2021/03/10 00:00:12;;;;;;;24.67;13.35;;;;;;;6.44;86.47;100380.22;5071196;28;20078;-71
2021/03/10 00:02:38;;;;;;;27.15;15.63;;;;;;;6.52;86.02;100382.69;5070907;28;20024;-71
2021/03/10 00:05:05;;;;;;;28.25;16.30;;;;;;;6.53;86.36;100389.44;5070790;28;20102;-72
2021/03/10 00:07:33;;;;;;;28.30;16.55;;;;;;;6.55;86.26;100383.53;5070929;28;20115;-71
2021/03/10 00:09:59;;;;;;;28.20;16.17;;;;;;;6.54;87.31;100373.41;5070911;28;20089;-71
2021/03/10 00:12:25;;;;;;;29.65;16.50;;;;;;;6.52;86.45;100363.34;5070878;28;20502;-72
2021/03/10 00:14:51;;;;;;;28.15;16.25;;;;;;;6.55;86.30;100370.06;5070849;28;20068;-71
2021/03/10 00:17:17;;;;;;;26.75;16.48;;;;;;;6.55;87.38;100372.59;5070782;28;20509;-70
2021/03/10 00:19:43;;;;;;;33.28;17.25;;;;;;;6.58;87.45;100370.03;5070736;28;20038;-71
2021/03/10 00:22:09;;;;;;;23.80;13.77;;;;;;;6.55;87.21;100370.91;5055379;28;20115;-72
2021/03/10 00:24:39;;;;;;;25.48;15.88;;;;;;;6.53;87.22;100359.13;5075051;28;20032;-72
2021/03/10 00:27:04;;;;;;;27.05;16.52;;;;;;;6.56;86.98;100369.19;5056604;28;20037;-72
2021/03/10 00:29:31;;;;;;;29.55;16.50;;;;;;;6.57;87.00;100361.63;5056683;28;20039;-71
2021/03/10 00:31:57;;;;;;;28.70;16.67;;;;;;;6.51;87.34;100349.03;5074637;28;20028;-71
2021/03/10 00:34:25;;;;;;;28.75;15.85;;;;;;;6.55;86.83;100360.81;5056433;28;20029;-71
2021/03/10 00:36:52;;;;;;;32.15;16.20;;;;;;;6.56;87.53;100357.41;5074056;28;20036;-71
2021/03/10 00:39:17;;;;;;;28.35;17.50;;;;;;;6.55;86.53;100355.75;5056508;28;20483;-71
2021/03/10 00:41:43;;;;;;;27.38;16.17;;;;;;;6.60;86.28;100359.06;5074222;28;20039;-71
2021/03/10 00:44:17;;;;;;;25.98;15.07;;;;;;;6.61;87.53;100355.72;5074121;28;20482;-72
2021/03/10 00:46:43;;;;;;;31.40;16.48;;;;;;;6.53;87.41;100346.50;5074299;28;20028;-71
2021/03/10 00:49:09;;;;;;;32.50;16.33;;;;;;;6.53;86.82;100339.78;5074103;28;20463;-72
2021/03/10 00:51:37;;;;;;;27.50;16.73;;;;;;;6.58;86.83;100353.19;5073957;28;20044;-72
2021/03/10 00:54:02;;;;;;;30.90;17.13;;;;;;;6.61;87.33;100344.78;5056386;28;20123;-72
2021/03/10 00:56:38;;;;;;;32.47;16.88;;;;;;;6.52;87.46;100350.72;5073921;28;20115;-71
2021/03/10 00:59:04;;;;;;;27.33;17.23;;;;;;;6.64;87.59;100350.63;5073849;28;20435;-72
2021/03/10 01:01:29;;;;;;;31.63;17.67;;;;;;;6.58;86.95;100337.19;5074122;28;20021;-71
2021/03/10 01:03:55;;;;;;;26.40;17.58;;;;;;;6.60;87.08;100330.44;5073861;28;20406;-71
2021/03/10 01:06:24;;;;;;;24.35;16.48;;;;;;;6.52;86.43;100325.44;5056001;28;20020;-71
2021/03/10 01:08:50;;;;;;;27.73;17.35;;;;;;;6.63;86.22;100341.41;5073850;28;20099;-71
2021/03/10 01:11:17;;;;;;;27.70;16.17;;;;;;;6.51;87.24;100317.91;5073552;28;20024;-71
2021/03/10 01:13:45;;;;;;;28.13;16.58;;;;;;;6.56;87.47;100324.59;5073719;28;20481;-72
2021/03/10 01:16:13;;;;;;;26.17;16.67;;;;;;;6.61;87.27;100325.41;5073586;28;20033;-71
2021/03/10 01:18:39;;;;;;;29.20;17.63;;;;;;;6.61;86.30;100319.50;5073600;28;20093;-72
2021/03/10 01:21:06;;;;;;;27.38;16.67;;;;;;;6.63;86.38;100323.72;5073699;28;20549;-71
2021/03/10 01:23:33;;;;;;;30.77;17.55;;;;;;;6.58;85.95;100327.94;5073512;28;20036;-71
2021/03/10 01:25:59;;;;;;;27.00;17.98;;;;;;;6.63;86.24;100327.91;5055720;28;20029;-72
2021/03/10 01:28:25;;;;;;;29.58;17.38;;;;;;;6.57;86.36;100317.84;5073537;28;20524;-72
2021/03/10 01:30:51;;;;;;;28.23;17.88;;;;;;;6.64;86.45;100327.06;5073463;28;20040;-72
2021/03/10 01:33:18;;;;;;;28.08;17.35;;;;;;;6.63;87.12;100325.41;5054759;28;20028;-72
2021/03/10 01:35:46;;;;;;;31.33;18.15;;;;;;;6.59;87.04;100321.22;5073293;28;20433;-72
2021/03/10 01:38:13;;;;;;;32.03;18.33;;;;;;;6.64;86.71;100319.47;5055519;28;20036;-72
2021/03/10 01:40:40;;;;;;;31.10;17.35;;;;;;;6.62;87.14;100314.44;5073337;28;20029;-72
2021/03/10 01:43:13;;;;;;;27.80;17.80;;;;;;;6.61;86.99;100315.31;5073230;28;20035;-72
2021/03/10 01:45:44;;;;;;;27.73;17.92;;;;;;;6.61;86.73;100307.72;5073103;28;20169;-72
2021/03/10 01:48:11;;;;;;;28.92;17.70;;;;;;;6.56;86.80;100288.38;5073420;28;20055;-72
2021/03/10 01:50:37;;;;;;;32.35;18.42;;;;;;;6.62;86.79;100304.34;5072311;28;20049;-71
2021/03/10 01:53:04;;;;;;;34.00;18.20;;;;;;;6.59;86.94;100286.69;5073031;28;20488;-72
2021/03/10 01:55:32;;;;;;;28.73;17.77;;;;;;;6.67;86.36;100296.75;5072973;28;20067;-72
2021/03/10 01:57:58;;;;;;;34.85;17.98;;;;;;;6.68;85.92;100281.56;5055059;28;20031;-71
2021/03/10 02:00:25;;;;;;;32.20;17.95;;;;;;;6.66;85.70;100280.75;5072975;28;20024;-71
2021/03/10 02:02:51;;;;;;;28.70;17.13;;;;;;;6.60;86.69;100278.25;5072935;28;20036;-71
2021/03/10 02:05:19;;;;;;;33.83;17.67;;;;;;;6.59;86.90;100271.53;5054595;28;20025;-72
2021/03/10 02:08:16;;;;;;;32.28;17.63;;;;;;;6.56;86.59;100256.41;5055053;28;20056;-72
2021/03/10 02:11:14;;;;;;;28.25;17.00;;;;;;;6.60;87.37;100255.53;5072702;28;20025;-71
2021/03/10 02:14:01;;;;;;;27.40;17.90;;;;;;;6.54;87.61;100248.00;5054746;28;20186;-72
2021/03/10 02:16:36;;;;;;;27.42;16.08;;;;;;;6.52;86.34;100252.22;5072250;28;20583;-71
2021/03/10 02:19:25;;;;;;;25.80;16.20;;;;;;;6.53;86.58;100266.53;5054578;28;20498;-72
2021/03/10 02:22:19;;;;;;;29.65;17.23;;;;;;;6.43;87.00;100252.28;5054507;28;20039;-71
2021/03/10 02:25:10;;;;;;;30.88;17.60;;;;;;;6.49;86.07;100249.72;5072857;28;20028;-71
2021/03/10 02:27:48;;;;;;;23.27;12.53;;;;;;;6.44;87.34;100255.66;5072077;28;20032;-72
2021/03/10 02:30:23;;;;;;;30.85;17.58;;;;;;;6.48;86.33;100249.72;5072412;28;20772;-71
2021/03/10 02:33:02;;;;;;;28.30;17.02;;;;;;;6.37;87.07;100236.34;5072109;28;20024;-72
2021/03/10 02:35:31;;;;;;;29.83;17.75;;;;;;;6.51;86.15;100255.59;5054175;28;20028;-72
2021/03/10 02:38:00;;;;;;;30.73;17.25;;;;;;;6.50;86.45;100248.03;5054321;28;20044;-72
2021/03/10 02:40:29;;;;;;;31.98;18.67;;;;;;;6.62;85.50;100253.81;5072101;28;20393;-72
2021/03/10 02:42:56;;;;;;;32.03;18.08;;;;;;;6.49;86.74;100252.25;5054071;28;20048;-72
2021/03/10 02:45:29;;;;;;;33.08;18.10;;;;;;;6.50;86.88;100246.34;5071186;28;20099;-72
2021/03/10 02:48:02;;;;;;;27.98;17.60;;;;;;;6.39;86.06;100245.59;5071858;28;20024;-72
2021/03/10 02:50:28;;;;;;;27.45;17.92;;;;;;;6.48;85.66;100249.72;5071554;28;20083;-72
2021/03/10 02:52:57;;;;;;;30.50;18.80;;;;;;;6.45;86.87;100247.22;5053999;28;20466;-72
2021/03/10 02:55:23;;;;;;;28.98;17.67;;;;;;;6.36;86.31;100248.13;5071759;28;20032;-71
2021/03/10 02:57:49;;;;;;;28.98;17.98;;;;;;;6.35;85.90;100246.47;5071533;28;20056;-72
2021/03/10 03:00:21;;;;;;;31.10;18.52;;;;;;;6.36;85.83;100249.84;5053733;28;20024;-71
2021/03/10 03:02:47;;;;;;;27.30;17.85;;;;;;;6.33;86.28;100245.63;5071555;28;20020;-71
2021/03/10 03:05:13;;;;;;;30.58;17.23;;;;;;;6.26;86.57;100233.88;5071284;28;20126;-72
2021/03/10 03:07:41;;;;;;;32.47;18.02;;;;;;;6.26;86.52;100238.13;5053811;28;20482;-72
2021/03/10 03:10:19;;;;;;;31.58;17.73;;;;;;;6.16;86.58;100222.16;5071516;28;20107;-71
2021/03/10 03:12:46;;;;;;;29.15;17.30;;;;;;;6.25;86.21;100244.84;5053576;28;20414;-71
2021/03/10 03:15:19;;;;;;;29.45;17.52;;;;;;;6.23;86.30;100245.69;5071538;28;20028;-71
2021/03/10 03:17:45;;;;;;;29.73;17.98;;;;;;;6.23;87.33;100243.16;5071437;28;20043;-71
2021/03/10 03:20:13;;;;;;;30.35;18.55;;;;;;;6.19;86.63;100227.22;5071336;28;20032;-72
2021/03/10 03:22:44;;;;;;;31.95;17.38;;;;;;;6.25;86.56;100242.31;5071288;28;20031;-72
2021/03/10 03:25:16;;;;;;;32.78;15.13;;;;;;;6.22;86.16;100242.31;5071305;28;20036;-71
2021/03/10 03:27:48;;;;;;;31.50;17.10;;;;;;;6.20;86.64;100238.97;5071301;28;20032;-71
2021/03/10 03:30:15;;;;;;;28.92;17.40;;;;;;;6.25;87.48;100251.56;5071442;28;20033;-71
2021/03/10 03:32:43;;;;;;;30.60;17.40;;;;;;;6.25;85.75;100246.53;5071366;28;20657;-72
2021/03/10 03:35:09;;;;;;;25.67;16.20;;;;;;;6.24;86.35;100238.09;5053276;28;20033;-71
2021/03/10 03:37:49;;;;;;;34.38;18.80;;;;;;;6.21;86.79;100248.22;5071365;28;20039;-72
2021/03/10 03:40:17;;;;;;;31.73;17.23;;;;;;;6.34;86.73;100257.38;5071181;28;20070;-72
2021/03/10 03:42:42;;;;;;;33.90;17.17;;;;;;;6.27;86.60;100253.25;5070901;28;20536;-71
2021/03/10 03:45:11;;;;;;;29.25;17.40;;;;;;;6.34;85.07;100262.44;5071373;28;20021;-71
2021/03/10 03:47:41;;;;;;;34.35;18.73;;;;;;;6.31;86.41;100254.91;5071063;28;20494;-71
2021/03/10 03:50:09;;;;;;;29.70;17.83;;;;;;;6.31;85.92;100265.00;5070017;28;20035;-72
2021/03/10 03:52:39;;;;;;;28.33;17.77;;;;;;;6.31;86.59;100257.44;5071015;28;20383;-71
2021/03/10 03:55:06;;;;;;;32.88;17.08;;;;;;;6.36;85.36;100250.66;5070982;28;20056;-72
2021/03/10 03:57:32;;;;;;;28.50;17.55;;;;;;;6.16;86.78;100232.25;5074470;28;20086;-71
2021/03/10 03:59:59;;;;;;;31.70;17.27;;;;;;;6.28;86.41;100244.81;5057380;28;20107;-71
2021/03/10 04:02:28;;;;;;;29.45;16.98;;;;;;;6.24;85.72;100250.72;5075010;28;20024;-71
2021/03/10 04:05:01;;;;;;;27.80;17.15;;;;;;;6.25;86.00;100254.94;5075182;28;20482;-72
2021/03/10 04:07:32;;;;;;;29.77;18.23;;;;;;;6.28;86.01;100244.81;5074906;28;20020;-72
2021/03/10 04:09:57;;;;;;;28.45;16.60;;;;;;;6.32;85.43;100238.06;5074851;28;20029;-72
2021/03/10 04:12:23;;;;;;;30.20;17.08;;;;;;;6.29;85.36;100240.59;5076441;28;20032;-71
2021/03/10 04:14:48;;;;;;;35.10;18.38;;;;;;;6.29;86.44;100238.94;5057848;28;20060;-72
2021/03/10 04:17:20;;;;;;;29.10;16.08;;;;;;;6.26;86.27;100230.53;5076385;28;20024;-71
2021/03/10 04:19:45;;;;;;;26.63;15.90;;;;;;;6.19;86.17;100224.69;5058156;28;20032;-72
2021/03/10 04:22:11;;;;;;;30.40;15.95;;;;;;;6.24;85.53;100224.66;5059045;28;20407;-72
2021/03/10 04:24:38;;;;;;;30.45;16.52;;;;;;;6.24;86.68;100230.53;5058010;28;20119;-72
2021/03/10 04:27:05;;;;;;;31.00;16.02;;;;;;;6.28;86.62;100239.75;5076052;28;20060;-72
2021/03/10 04:29:31;;;;;;;27.63;15.48;;;;;;;6.27;87.06;100228.00;5075219;28;20032;-71
2021/03/10 04:31:57;;;;;;;30.35;16.55;;;;;;;6.33;86.12;100239.72;5074862;28;20496;-71
2021/03/10 04:34:23;;;;;;;33.28;16.50;;;;;;;6.27;85.52;100235.56;5056511;28;20025;-71
2021/03/10 04:36:49;;;;;;;30.50;17.67;;;;;;;6.33;85.41;100233.00;5056267;28;20462;-72
2021/03/10 04:39:14;;;;;;;27.83;16.77;;;;;;;6.13;86.03;100212.94;5055965;28;20020;-71
2021/03/10 04:41:40;;;;;;;33.00;16.88;;;;;;;6.31;85.73;100231.34;5073046;28;20099;-71
2021/03/10 04:44:07;;;;;;;26.13;16.73;;;;;;;6.18;86.15;100210.38;5055490;28;20487;-72
2021/03/10 04:46:34;;;;;;;27.05;16.90;;;;;;;6.30;86.58;100217.06;5073444;28;20090;-72
2021/03/10 04:48:59;;;;;;;27.63;15.98;;;;;;;6.35;86.30;100225.41;5055198;28;20024;-72
2021/03/10 04:51:25;;;;;;;28.75;17.15;;;;;;;6.29;85.79;100222.94;5055263;28;20052;-72
2021/03/10 04:53:50;;;;;;;28.27;16.73;;;;;;;6.27;87.50;100219.59;5073480;28;20413;-73
2021/03/10 04:56:16;;;;;;;31.23;17.15;;;;;;;6.27;87.21;100217.06;5055897;28;20516;-72
2021/03/10 04:58:42;;;;;;;25.98;16.27;;;;;;;6.23;87.02;100211.19;5073582;28;20043;-72
2021/03/10 05:01:17;;;;;;;31.85;17.33;;;;;;;6.38;86.47;100208.56;5073529;28;20107;-74
2021/03/10 05:03:44;;;;;;;30.50;17.27;;;;;;;6.36;86.43;100210.25;5073635;28;20032;-72
2021/03/10 05:06:14;;;;;;;31.02;15.88;;;;;;;6.35;86.02;100215.31;5055822;28;20520;-71
2021/03/10 05:08:40;;;;;;;29.83;16.60;;;;;;;6.35;86.23;100206.06;5072226;28;20021;-72
2021/03/10 05:11:07;;;;;;;29.52;16.63;;;;;;;6.49;85.63;100216.06;5072815;28;20498;-72
2021/03/10 05:13:33;;;;;;;26.08;15.50;;;;;;;6.42;86.18;100209.41;5084597;28;20055;-72
2021/03/10 05:16:01;;;;;;;27.08;15.60;;;;;;;6.39;86.20;100204.34;5075161;28;20024;-73
2021/03/10 05:18:28;;;;;;;30.10;17.23;;;;;;;6.47;85.52;100193.34;5094388;28;20035;-77
2021/03/10 05:20:54;;;;;;;28.77;16.23;;;;;;;6.40;87.34;100211.09;5075995;28;20051;-78
2021/03/10 05:23:41;;;;;;;31.25;16.70;;;;;;;6.54;85.59;100215.16;5071216;28;20111;-77
2021/03/10 05:26:24;;;;;;;26.83;16.20;;;;;;;6.40;87.19;100195.94;5073939;28;20029;-80
2021/03/10 05:29:01;;;;;;;30.17;17.10;;;;;;;6.57;86.49;100209.25;5056664;28;20524;-79
2021/03/10 05:31:32;;;;;;;32.33;16.95;;;;;;;6.56;87.24;100210.94;5056252;28;20047;-76
2021/03/10 05:34:15;;;;;;;27.63;16.77;;;;;;;6.70;86.51;100210.81;5073505;28;20024;-77
2021/03/10 05:36:41;;;;;;;27.52;17.02;;;;;;;6.59;86.82;100195.78;5055839;28;20028;-77
2021/03/10 05:39:13;;;;;;;31.85;17.98;;;;;;;6.76;86.36;100206.56;5056221;28;20474;-76
2021/03/10 05:41:43;;;;;;;32.50;18.52;;;;;;;6.72;86.66;100220.06;5082673;28;20024;-77
2021/03/10 05:44:10;;;;;;;30.80;17.95;;;;;;;6.69;86.56;100210.00;5094476;28;20058;-77
2021/03/10 05:47:04;;;;;;;27.38;17.15;;;;;;;6.83;85.92;100233.44;5094377;28;20516;-76
2021/03/10 05:50:03;;;;;;;31.42;17.63;;;;;;;6.82;87.24;100225.88;5076849;28;20111;-82
2021/03/10 05:52:42;;;;;;;33.55;18.70;;;;;;;6.96;86.91;100224.91;5073147;28;20482;-77
2021/03/10 05:55:11;;;;;;;29.85;17.25;;;;;;;6.71;86.05;100212.50;5072548;28;20036;-77
2021/03/10 06:01:06;;;;;;;31.15;17.38;;;;;;;6.70;86.02;100218.41;5073998;28;20105;-78
2021/03/10 06:03:33;;;;;;;32.65;18.25;;;;;;;6.78;86.71;100219.16;5074181;28;20028;-77
2021/03/10 06:06:33;;;;;;;32.15;18.75;;;;;;;6.85;85.89;100229.19;5073903;28;20158;-77
2021/03/10 06:09:38;;;;;;;34.30;18.23;;;;;;;6.83;85.70;100233.44;5073379;28;20094;-79
2021/03/10 06:15:48;;;;;;;31.92;18.08;;;;;;;6.91;85.81;100231.69;5074008;28;20128;-77
2021/03/10 06:18:32;;;;;;;32.08;19.65;;;;;;;7.01;86.45;100223.16;5072666;28;20028;-78
2021/03/10 06:21:29;;;;;;;35.22;18.90;;;;;;;6.92;87.38;100217.34;5072609;28;20504;-78
2021/03/10 06:24:10;;;;;;;34.10;19.23;;;;;;;6.85;86.70;100211.50;5072529;28;20111;-78
2021/03/10 06:27:23;;;;;;;24.27;14.30;;;;;;;6.95;86.10;100220.69;5072343;28;20051;-77
2021/03/10 06:30:11;;;;;;;33.35;19.08;;;;;;;7.03;86.66;100222.31;5072173;28;20676;-77
2021/03/10 06:33:01;;;;;;;36.22;20.33;;;;;;;7.07;85.98;100214.69;5072332;28;20456;-77
2021/03/10 06:35:51;;;;;;;38.97;21.02;;;;;;;6.98;86.22;100214.78;5072051;28;20448;-77
2021/03/10 06:41:41;;;;;;;40.30;20.20;;;;;;;6.99;86.42;100204.66;5073605;28;20532;-77
2021/03/10 06:44:29;;;;;;;36.22;20.10;;;;;;;7.03;85.84;100212.22;5071900;28;20791;-77
2021/03/10 06:47:33;;;;;;;35.67;18.13;;;;;;;7.03;86.54;100200.41;5072143;28;20048;-77
2021/03/10 06:49:59;;;;;;;32.47;19.25;;;;;;;7.07;86.07;100179.31;5071635;28;20037;-78
2021/03/10 06:52:29;;;;;;;40.53;21.45;;;;;;;7.14;84.86;100183.44;5071473;28;20110;-77
2021/03/10 06:54:57;;;;;;;37.83;21.13;;;;;;;7.16;85.04;100165.72;5071952;28;20029;-78
2021/03/10 06:57:43;;;;;;;42.58;22.00;;;;;;;7.22;85.16;100189.25;5071975;28;20036;-78
2021/03/10 07:00:22;;;;;;;32.90;20.83;;;;;;;7.37;85.25;100195.84;5072782;28;20514;-78
2021/03/10 07:03:10;;;;;;;39.42;20.65;;;;;;;7.23;84.89;100200.22;5071697;28;20582;-77
2021/03/10 07:05:40;;;;;;;33.30;18.73;;;;;;;7.22;85.20;100201.03;4703167;28;10000463;-77
2021/03/10 07:08:11;;;;;;;40.92;22.45;;;;;;;7.36;84.07;100204.25;5049016;28;20368;-76
2021/03/10 07:10:40;;;;;;;46.22;22.10;;;;;;;7.34;84.14;100194.16;5049238;28;20028;-77
2021/03/10 07:13:06;;;;;;;39.25;21.08;;;;;;;7.35;83.75;100192.50;5048699;28;20381;-77
2021/03/10 07:15:33;;;;;;;40.90;23.42;;;;;;;7.46;84.19;100194.03;5049464;28;20037;-80
2021/03/10 07:18:00;;;;;;;37.33;22.42;;;;;;;7.53;82.95;100188.03;5048591;28;20033;-77
2021/03/10 07:20:26;;;;;;;38.90;22.50;;;;;;;7.55;84.03;100176.19;5048584;28;20391;-76
2021/03/10 07:23:02;;;;;;;39.30;19.88;;;;;;;7.51;84.11;100159.38;5048326;28;20056;-77
2021/03/10 07:25:33;;;;;;;37.60;21.13;;;;;;;7.71;82.91;100154.06;5048164;28;20106;-77
2021/03/10 07:28:02;;;;;;;36.88;21.75;;;;;;;7.73;82.31;100160.78;5047893;28;20036;-77
2021/03/10 07:30:37;;;;;;;40.40;22.02;;;;;;;7.96;82.45;100162.16;5047660;28;20407;-76
2021/03/10 07:33:11;;;;;;;39.38;21.42;;;;;;;8.00;81.95;100168.84;5048161;28;20060;-76
2021/03/10 07:35:55;;;;;;;30.05;16.52;;;;;;;7.80;82.85;100167.41;5049381;28;20507;-77
2021/03/10 07:38:36;;;;;;;35.50;20.95;;;;;;;7.96;81.49;100163.00;5048259;28;20036;-77
2021/03/10 07:41:05;;;;;;;35.10;19.75;;;;;;;7.92;81.42;100141.13;5048161;28;20060;-78
2021/03/10 07:43:44;;;;;;;34.97;20.30;;;;;;;7.99;81.21;100152.81;5049455;28;20029;-78
2021/03/10 07:46:26;;;;;;;33.03;19.67;;;;;;;8.06;81.75;100141.72;5048346;28;20060;-81
2021/03/10 07:48:52;;;;;;;36.88;21.92;;;;;;;8.31;80.97;100149.81;5049554;28;20029;-86
2021/03/10 07:51:33;;;;;;;37.55;20.88;;;;;;;8.10;81.74;100156.00;5047917;28;20062;-80
2021/03/10 07:54:01;;;;;;;31.17;17.65;;;;;;;8.00;81.50;100158.72;5048521;28;20036;-78
2021/03/10 07:56:32;;;;;;;36.97;20.55;;;;;;;8.00;81.59;100154.50;5048388;28;20082;-78
2021/03/10 07:59:18;;;;;;;35.58;19.25;;;;;;;7.93;82.64;100152.06;5049780;28;20029;-78
2021/03/10 08:01:44;;;;;;;39.38;21.35;;;;;;;8.03;81.26;100153.59;5048363;28;20033;-77
2021/03/10 08:04:14;;;;;;;38.38;23.13;;;;;;;7.98;81.60;100135.13;5054796;28;20044;-78
2021/03/10 08:06:52;;;;;;;37.40;20.90;;;;;;;8.13;80.89;100147.53;5068838;28;20172;-78
2021/03/10 08:09:23;;;;;;;32.67;18.15;;;;;;;8.03;80.91;100138.41;5067970;28;20818;-78
2021/03/10 08:12:10;;;;;;;40.25;21.40;;;;;;;8.11;80.82;100139.13;5070929;28;20024;-78
2021/03/10 08:14:40;;;;;;;38.53;21.45;;;;;;;8.12;80.72;100143.34;5075462;28;20033;-78
2021/03/10 08:17:08;;;;;;;33.97;20.67;;;;;;;8.08;80.91;100136.66;5078951;28;20028;-81
2021/03/10 08:19:35;;;;;;;33.67;20.55;;;;;;;8.17;80.07;100136.50;5074959;28;20563;-81
2021/03/10 08:22:02;;;;;;;32.47;19.70;;;;;;;8.05;81.09;100131.63;5079687;28;20257;-78
2021/03/10 08:24:28;;;;;;;40.75;20.58;;;;;;;8.21;79.99;100140.66;5076021;28;20041;-78
2021/03/10 08:26:59;;;;;;;29.90;18.88;;;;;;;8.26;79.66;100132.16;5077179;28;20032;-78
2021/03/10 08:29:31;;;;;;;23.02;12.88;;;;;;;8.06;79.79;100108.00;5068302;28;20039;-78
2021/03/10 08:31:57;;;;;;;27.15;16.73;;;;;;;8.12;79.18;100128.16;5068515;28;20035;-79
2021/03/10 08:34:39;;;;;;;33.13;19.83;;;;;;;8.24;79.48;100128.78;5067845;28;20017;-83
2021/03/10 08:37:08;;;;;;;26.10;14.57;;;;;;;8.14;80.42;100129.78;5067822;28;20036;-87
2021/03/10 08:39:44;;;;;;;31.23;19.77;;;;;;;8.31;79.65;100125.34;5068672;28;20472;-79
2021/03/10 08:42:11;;;;;;;35.08;19.88;;;;;;;8.36;79.34;100105.81;5070081;28;20028;-79
2021/03/10 08:44:44;;;;;;;35.95;20.45;;;;;;;8.48;78.69;100117.44;5072306;28;20032;-79
2021/03/10 08:47:20;;;;;;;32.42;18.83;;;;;;;8.37;79.48;100099.06;5072835;28;20056;-78
2021/03/10 08:49:54;;;;;;;33.60;20.38;;;;;;;8.60;78.07;100102.03;5071359;28;20033;-78
2021/03/10 08:52:20;;;;;;;30.05;14.52;;;;;;;8.31;78.45;100107.63;5070353;28;20213;-77
2021/03/10 08:54:58;;;;;;;37.10;18.77;;;;;;;8.45;78.36;100112.44;5070781;28;20029;-76
2021/03/10 08:57:32;;;;;;;33.47;18.67;;;;;;;8.51;78.23;100108.13;5071002;28;20037;-78
2021/03/10 09:00:15;;;;;;;27.27;17.38;;;;;;;8.43;78.63;100091.38;5071680;28;20030;-78
2021/03/10 09:02:44;;;;;;;37.90;19.45;;;;;;;8.58;78.07;100091.91;5071003;28;20032;-78
2021/03/10 09:05:12;;;;;;;37.47;20.17;;;;;;;8.73;78.00;100086.56;5055844;28;20047;-77
2021/03/10 09:07:39;;;;;;;34.50;19.52;;;;;;;8.92;76.88;100078.59;5050663;28;20048;-78
2021/03/10 09:10:10;;;;;;;31.95;16.38;;;;;;;8.66;76.68;100087.56;5051495;28;20033;-78
2021/03/10 09:12:41;;;;;;;17.58;9.13;;;;;;;8.73;76.37;100065.47;5050687;28;20050;-77
2021/03/10 09:15:11;;;;;;;29.30;15.23;;;;;;;9.07;75.61;100076.59;5050614;28;20171;-76
2021/03/10 09:17:37;;;;;;;35.22;18.75;;;;;;;9.43;73.93;100077.53;5051479;28;20033;-78
2021/03/10 09:20:27;;;;;;;24.83;15.50;;;;;;;9.24;74.26;100071.19;5060159;28;20025;-79
2021/03/10 09:22:56;;;;;;;32.10;16.67;;;;;;;9.41;74.66;100072.50;5070858;28;20120;-77
2021/03/10 09:25:35;;;;;;;27.15;16.23;;;;;;;9.19;74.16;100062.84;5071914;28;20029;-78
2021/03/10 09:28:16;;;;;;;27.73;17.60;;;;;;;9.94;72.59;100040.81;5070483;28;20052;-81
2021/03/10 09:30:45;;;;;;;34.13;16.10;;;;;;;9.69;72.62;100049.88;5072003;28;20525;-79
2021/03/10 09:33:22;;;;;;;32.30;22.95;;;;;;;10.04;71.30;100057.47;5072189;28;20278;-79
2021/03/10 09:35:56;;;;;;;26.90;15.73;;;;;;;9.58;73.03;100047.59;5070688;28;20024;-79
2021/03/10 09:38:30;;;;;;;27.73;16.70;;;;;;;9.66;72.71;100039.78;5070753;28;20033;-82
2021/03/10 09:41:01;;;;;;;30.95;17.20;;;;;;;9.90;71.72;100041.75;5071767;28;20524;-83
2021/03/10 09:43:29;;;;;;;29.35;18.15;;;;;;;10.35;70.50;100038.09;5070032;28;20036;-83
2021/03/10 09:46:06;;;;;;;28.77;16.40;;;;;;;10.24;71.02;100036.69;5071205;28;20036;-78
2021/03/10 09:48:32;;;;;;;28.00;15.95;;;;;;;9.82;71.39;100038.56;5070060;28;20028;-79
2021/03/10 09:51:16;;;;;;;28.20;17.67;;;;;;;9.91;71.73;100028.19;5069872;28;20052;-80
2021/03/10 09:53:51;;;;;;;24.30;16.60;;;;;;;9.70;70.65;100020.25;5069973;28;20036;-80
2021/03/10 09:56:20;;;;;;;25.08;15.05;;;;;;;9.87;71.06;100020.66;5071212;28;20040;-80
2021/03/10 09:58:55;;;;;;;24.70;14.35;;;;;;;9.56;71.19;100018.03;5070428;28;20052;-82
2021/03/10 10:01:25;;;;;;;25.83;16.92;;;;;;;9.76;70.92;100013.31;5073377;28;20055;-80
2021/03/10 10:03:53;;;;;;;26.98;16.17;;;;;;;9.82;70.39;100013.19;5065699;28;20426;-82
2021/03/10 10:06:20;;;;;;;24.13;14.43;;;;;;;9.51;71.61;100007.13;5051183;28;20032;-81
2021/03/10 10:08:48;;;;;;;25.30;13.40;;;;;;;9.56;70.79;99993.50;5050865;28;20025;-80
2021/03/10 10:11:16;;;;;;;21.00;14.45;;;;;;;9.66;71.24;100011.88;5050806;28;20033;-78
2021/03/10 10:13:46;;;;;;;22.00;14.40;;;;;;;9.44;71.49;99998.03;5049705;28;20029;-84
2021/03/10 10:16:13;;;;;;;25.55;14.30;;;;;;;9.45;72.29;100005.59;5049088;28;20518;-79
2021/03/10 10:18:39;;;;;;;25.90;16.50;;;;;;;9.72;71.27;100003.28;5050654;28;20028;-76
2021/03/10 10:21:07;;;;;;;24.30;15.27;;;;;;;9.53;71.53;99996.09;5050729;28;20025;-78
2021/03/10 10:23:35;;;;;;;27.67;14.90;;;;;;;9.52;70.91;99996.13;5049825;28;20039;-77
2021/03/10 10:26:02;;;;;;;25.95;15.50;;;;;;;9.64;70.28;99975.53;5049397;28;20039;-78
2021/03/10 10:28:44;;;;;;;22.50;15.38;;;;;;;9.57;70.83;99989.25;5048376;28;20025;-77
2021/03/10 10:31:11;;;;;;;;;;;;;;;9.50;70.75;99992.81;5049982;28;20025;-77
2021/03/10 10:33:37;;;;;;;23.63;15.60;;;;;;;9.67;70.70;99983.06;5049730;28;20398;-78
2021/03/10 10:36:03;;;;;;;24.33;14.95;;;;;;;9.86;70.21;99981.75;5050157;28;20075;-76
2021/03/10 10:38:29;;;;;;;22.63;14.35;;;;;;;9.73;70.13;99980.38;5049221;28;20029;-78
2021/03/10 10:40:56;;;;;;;26.88;15.38;;;;;;;9.78;70.61;99963.34;5050343;28;20027;-78
2021/03/10 10:43:22;;;;;;;21.55;14.43;;;;;;;9.70;69.76;99964.41;5051173;28;20025;-78
2021/03/10 10:45:56;;;;;;;22.63;14.38;;;;;;;9.72;70.08;99947.44;5050027;28;20435;-77
2021/03/10 10:48:24;;;;;;;24.63;14.50;;;;;;;9.74;70.39;99961.75;5050237;28;20037;-78
2021/03/10 10:50:49;;;;;;;27.63;11.95;;;;;;;9.44;71.22;99965.88;5048638;28;20052;-77
2021/03/10 10:53:15;;;;;;;23.08;13.90;;;;;;;9.58;71.09;99970.63;5049713;28;20067;-77
2021/03/10 10:55:44;;;;;;;26.35;16.05;;;;;;;9.89;69.85;99951.22;5049441;28;20029;-77
2021/03/10 10:58:11;;;;;;;25.60;14.00;;;;;;;9.46;71.16;99940.47;5049170;28;20029;-78
2021/03/10 11:00:45;;;;;;;21.98;14.13;;;;;;;9.38;71.17;99945.72;5049677;28;20029;-78
2021/03/10 11:03:22;;;;;;;21.92;14.48;;;;;;;9.34;70.98;99915.38;5049960;28;20111;-78
2021/03/10 11:05:49;;;;;;;26.85;16.65;;;;;;;9.70;70.58;99911.94;5047874;28;20029;-77
2021/03/10 11:08:15;;;;;;;20.85;14.30;;;;;;;9.67;69.57;99924.69;5049990;28;20025;-77
2021/03/10 11:10:57;;;;;;;31.67;18.55;;;;;;;9.56;70.68;99921.59;5050423;28;20025;-77
2021/03/10 11:13:24;;;;;;;32.78;17.63;;;;;;;9.58;70.14;99905.47;5049340;28;20493;-78
2021/03/10 11:16:03;;;;;;;24.67;15.95;;;;;;;9.76;69.22;99898.25;5048741;28;20033;-78
2021/03/10 11:18:30;;;;;;;24.05;13.75;;;;;;;9.29;70.90;99882.50;5050508;28;20496;-77
2021/03/10 11:21:04;;;;;;;23.85;15.75;;;;;;;9.64;69.92;99884.19;5050073;28;20155;-76
2021/03/10 11:23:59;;;;;;;26.45;16.65;;;;;;;9.72;68.66;99889.06;5050092;28;20033;-78
2021/03/10 11:26:27;;;;;;;20.13;14.25;;;;;;;9.75;68.92;99888.97;5048395;28;20095;-77
2021/03/10 11:28:58;;;;;;;24.52;16.33;;;;;;;9.66;68.37;99879.06;5049326;28;20522;-76
2021/03/10 11:31:34;;;;;;;20.50;13.15;;;;;;;9.57;69.22;99890.25;5049667;28;20024;-77
2021/03/10 11:34:00;;;;;;;21.27;12.63;;;;;;;9.30;70.89;99885.88;5048269;28;20040;-76
2021/03/10 11:36:31;;;;;;;20.38;12.95;;;;;;;9.50;70.19;99876.94;5049543;28;20103;-78
2021/03/10 11:39:00;;;;;;;27.40;12.45;;;;;;;9.48;70.86;99882.91;5049662;28;20052;-78
2021/03/10 11:41:36;;;;;;;22.80;12.85;;;;;;;9.33;70.43;99868.06;5049252;28;20029;-77
2021/03/10 11:44:11;;;;;;;21.00;14.07;;;;;;;9.50;69.23;99871.00;5048957;28;20037;-76
2021/03/10 11:46:37;;;;;;;21.17;13.20;;;;;;;9.27;70.26;99861.41;5051513;28;20039;-77
2021/03/10 11:49:04;;;;;;;22.88;13.80;;;;;;;9.27;71.14;99860.59;5051999;28;20037;-76